createdAt,value
2016-08-06T00:00:52.124Z,0
2016-08-06T00:01:52.170Z,0
2016-08-06T00:02:52.114Z,0
2016-08-06T00:03:52.121Z,0
2016-08-06T00:04:52.120Z,0
2016-08-06T00:05:52.119Z,0
2016-08-06T00:06:52.112Z,0
2016-08-06T00:07:52.116Z,0
2016-08-06T00:08:52.110Z,0
2016-08-06T00:09:52.105Z,0
2016-08-06T00:10:52.803Z,0
2016-08-06T00:11:52.105Z,0
2016-08-06T00:12:52.113Z,0
2016-08-06T00:13:52.105Z,0
2016-08-06T00:14:52.101Z,0
2016-08-06T00:15:52.092Z,0
2016-08-06T00:16:52.089Z,0
2016-08-06T00:17:53.813Z,0
2016-08-06T00:18:52.788Z,0
2016-08-06T00:20:52.085Z,0
2016-08-06T00:21:52.084Z,0
2016-08-06T00:22:52.081Z,0
2016-08-06T00:23:52.070Z,0
2016-08-06T00:24:52.073Z,0
2016-08-06T00:25:54.325Z,0
2016-08-06T00:26:52.124Z,0
2016-08-06T00:28:07.388Z,0
2016-08-06T00:29:07.484Z,0
2016-08-06T00:29:52.113Z,0
2016-08-06T00:30:52.063Z,0
2016-08-06T00:31:52.055Z,0
2016-08-06T00:32:52.056Z,0
2016-08-06T00:33:52.054Z,0
2016-08-06T00:35:07.315Z,0
2016-08-06T00:35:53.994Z,0
2016-08-06T00:36:52.449Z,0
2016-08-06T00:38:07.460Z,0
2016-08-06T00:38:52.493Z,0
2016-08-06T00:39:52.445Z,0
2016-08-06T00:40:52.036Z,0
2016-08-06T00:41:52.039Z,0
2016-08-06T00:42:52.042Z,0
2016-08-06T00:43:52.033Z,0
2016-08-06T00:44:52.722Z,0
2016-08-06T00:45:54.145Z,0
2016-08-06T00:46:54.893Z,0
2016-08-06T00:47:52.503Z,0
2016-08-06T00:48:52.016Z,0
2016-08-06T00:49:52.424Z,0
2016-08-06T00:50:52.615Z,0
2016-08-06T00:51:52.016Z,0
2016-08-06T00:52:52.003Z,0
2016-08-06T00:53:52.001Z,0
2016-08-06T00:54:53.521Z,0
2016-08-06T00:55:53.547Z,0
2016-08-06T00:56:54.558Z,0
2016-08-06T00:57:53.887Z,0
2016-08-06T00:58:52.069Z,0
2016-08-06T00:59:52.759Z,0
2016-08-06T01:00:52.324Z,0
2016-08-06T01:01:51.978Z,0
2016-08-06T01:02:51.975Z,0
2016-08-06T01:03:51.988Z,0
2016-08-06T01:04:51.978Z,0
2016-08-06T01:05:51.978Z,0
2016-08-06T01:06:51.967Z,0
2016-08-06T01:07:51.956Z,0
2016-08-06T01:08:51.967Z,0
2016-08-06T01:09:51.963Z,0
2016-08-06T01:10:51.969Z,0
2016-08-06T01:11:51.957Z,0
2016-08-06T01:12:51.953Z,0
2016-08-06T01:13:51.951Z,0
2016-08-06T01:14:51.938Z,0
2016-08-06T01:15:51.944Z,0
2016-08-06T01:16:52.140Z,0
2016-08-06T01:17:51.936Z,0
2016-08-06T01:18:51.933Z,0
2016-08-06T01:19:51.937Z,0
2016-08-06T01:20:51.932Z,0
2016-08-06T01:21:51.920Z,0
2016-08-06T01:22:51.917Z,0
2016-08-06T01:23:51.909Z,0
2016-08-06T01:24:51.918Z,0
2016-08-06T01:25:51.917Z,0
2016-08-06T01:26:51.906Z,0
2016-08-06T01:27:51.911Z,0
2016-08-06T01:28:51.902Z,0
2016-08-06T01:29:51.898Z,0
2016-08-06T01:30:51.899Z,0
2016-08-06T01:31:51.891Z,0
2016-08-06T01:32:51.893Z,0
2016-08-06T01:33:51.885Z,0
2016-08-06T01:34:51.890Z,0
2016-08-06T01:35:51.874Z,0
2016-08-06T01:36:51.880Z,0
2016-08-06T01:37:51.874Z,0
2016-08-06T01:38:51.879Z,0
2016-08-06T01:39:51.881Z,0
2016-08-06T01:40:51.873Z,0
2016-08-06T01:41:51.860Z,0
2016-08-06T01:42:51.861Z,0
2016-08-06T01:43:52.103Z,0
2016-08-06T01:44:52.268Z,0
2016-08-06T01:47:51.846Z,0
2016-08-06T01:48:52.193Z,0
2016-08-06T01:49:51.946Z,0
2016-08-06T01:50:51.837Z,0
2016-08-06T01:51:51.837Z,0
2016-08-06T01:52:52.729Z,0
2016-08-06T01:53:52.280Z,0
2016-08-06T01:55:22.302Z,0
2016-08-06T01:56:51.819Z,0
2016-08-06T01:57:52.464Z,0
2016-08-06T01:58:52.572Z,0
2016-08-06T01:59:51.910Z,0
2016-08-06T02:00:51.807Z,0
2016-08-06T02:01:51.800Z,0
2016-08-06T02:02:51.896Z,0
2016-08-06T02:03:53.329Z,0
2016-08-06T02:04:54.828Z,0
2016-08-06T02:05:52.874Z,0
2016-08-06T02:06:52.654Z,0
2016-08-06T02:07:52.489Z,0
2016-08-06T02:08:52.327Z,0
2016-08-06T02:09:52.262Z,0
2016-08-06T02:10:51.777Z,0
2016-08-06T02:11:51.775Z,0
2016-08-06T02:13:52.825Z,0
2016-08-06T02:14:54.357Z,0
2016-08-06T02:15:51.763Z,0
2016-08-06T02:16:53.189Z,0
2016-08-06T02:17:51.829Z,0
2016-08-06T02:18:52.205Z,0
2016-08-06T02:19:51.890Z,0
2016-08-06T02:20:51.742Z,0
2016-08-06T02:21:51.743Z,0
2016-08-06T02:22:51.744Z,0
2016-08-06T02:23:51.741Z,0
2016-08-06T02:24:51.735Z,0
2016-08-06T02:25:51.722Z,0
2016-08-06T02:26:51.730Z,0
2016-08-06T02:27:51.725Z,0
2016-08-06T02:28:51.722Z,0
2016-08-06T02:29:51.716Z,0
2016-08-06T02:30:51.716Z,0
2016-08-06T02:31:51.712Z,0
2016-08-06T02:32:51.722Z,0
2016-08-06T02:33:51.706Z,0
2016-08-06T02:34:51.702Z,0
2016-08-06T02:35:51.709Z,0
2016-08-06T02:36:51.711Z,0
2016-08-06T02:37:51.694Z,0
2016-08-06T02:38:51.704Z,0
2016-08-06T02:39:51.692Z,0
2016-08-06T02:40:51.686Z,0
2016-08-06T02:41:51.685Z,0
2016-08-06T02:42:51.689Z,0
2016-08-06T02:43:51.679Z,0
2016-08-06T02:44:51.677Z,0
2016-08-06T02:45:51.675Z,0
2016-08-06T02:46:51.664Z,0
2016-08-06T02:47:51.669Z,0
2016-08-06T02:48:51.669Z,0
2016-08-06T02:49:51.662Z,0
2016-08-06T02:50:51.665Z,0
2016-08-06T02:51:51.652Z,0
2016-08-06T02:52:51.651Z,0
2016-08-06T02:53:51.661Z,0
2016-08-06T02:54:51.655Z,4
2016-08-06T02:55:51.640Z,4
2016-08-06T02:56:51.645Z,4
2016-08-06T02:57:51.647Z,4
2016-08-06T02:58:51.647Z,4
2016-08-06T02:59:51.633Z,4
2016-08-06T03:00:51.641Z,4
2016-08-06T03:02:06.544Z,4
2016-08-06T03:02:53.225Z,8
2016-08-06T03:03:52.630Z,8
2016-08-06T03:04:52.467Z,8
2016-08-06T03:05:52.115Z,8
2016-08-06T03:06:51.615Z,12
2016-08-06T03:07:51.714Z,16
2016-08-06T03:08:51.713Z,20
2016-08-06T03:09:51.608Z,20
2016-08-06T03:10:51.610Z,24
2016-08-06T03:12:07.961Z,28
2016-08-06T03:13:07.462Z,32
2016-08-06T03:13:52.441Z,32
2016-08-06T03:14:51.636Z,40
2016-08-06T03:15:51.590Z,44
2016-08-06T03:16:52.134Z,48
2016-08-06T03:17:51.577Z,56
2016-08-06T03:18:51.582Z,64
2016-08-06T03:19:51.577Z,72
2016-08-06T03:20:51.569Z,80
2016-08-06T03:21:54.083Z,92
2016-08-06T03:22:52.571Z,100
2016-08-06T03:23:54.766Z,112
2016-08-06T03:24:51.930Z,124
2016-08-06T03:25:52.151Z,136
2016-08-06T03:26:51.548Z,148
2016-08-06T03:27:51.664Z,168
2016-08-06T03:28:51.557Z,184
2016-08-06T03:29:51.543Z,200
2016-08-06T03:30:51.543Z,216
2016-08-06T03:32:54.299Z,260
2016-08-06T03:33:55.173Z,276
2016-08-06T03:34:53.197Z,300
2016-08-06T03:35:52.536Z,320
2016-08-06T03:36:51.521Z,344
2016-08-06T03:37:51.716Z,368
2016-08-06T03:38:51.515Z,392
2016-08-06T03:39:51.512Z,416
2016-08-06T03:40:51.504Z,440
2016-08-06T03:41:51.515Z,464
2016-08-06T03:42:51.503Z,492
2016-08-06T03:43:51.493Z,520
2016-08-06T03:44:51.496Z,544
2016-08-06T03:46:51.492Z,600
2016-08-06T03:47:51.477Z,628
2016-08-06T03:48:51.477Z,660
2016-08-06T03:49:51.480Z,688
2016-08-06T03:50:51.466Z,720
2016-08-06T03:51:51.471Z,752
2016-08-06T03:52:51.466Z,788
2016-08-06T03:53:51.474Z,824
2016-08-06T03:54:51.461Z,860
2016-08-06T03:55:51.448Z,892
2016-08-06T03:56:51.453Z,928
2016-08-06T03:57:51.447Z,964
2016-08-06T03:58:51.437Z,1008
2016-08-06T03:59:51.447Z,1052
2016-08-06T04:01:51.433Z,1140
2016-08-06T04:02:51.476Z,1188
2016-08-06T04:03:51.416Z,1240
2016-08-06T04:04:51.425Z,1288
2016-08-06T04:05:51.421Z,1348
2016-08-06T04:06:51.430Z,1408
2016-08-06T04:07:51.418Z,1480
2016-08-06T04:08:51.400Z,1556
2016-08-06T04:09:51.409Z,1648
2016-08-06T04:10:51.399Z,1752
2016-08-06T04:11:51.401Z,1864
2016-08-06T04:12:51.391Z,1992
2016-08-06T04:13:51.388Z,2180
2016-08-06T04:14:51.388Z,2436
2016-08-06T04:15:51.386Z,2636
2016-08-06T04:16:51.374Z,2724
2016-08-06T04:17:51.376Z,2772
2016-08-06T04:18:51.373Z,2900
2016-08-06T04:19:51.367Z,3604
2016-08-06T04:20:51.567Z,4268
2016-08-06T04:21:52.413Z,4600
2016-08-06T04:22:52.158Z,4692
2016-08-06T04:23:52.202Z,4872
2016-08-06T04:24:51.962Z,5528
2016-08-06T04:25:51.348Z,5932
2016-08-06T04:26:51.751Z,6288
2016-08-06T04:27:51.337Z,6680
2016-08-06T04:28:51.340Z,6956
2016-08-06T04:29:52.381Z,6996
2016-08-06T04:30:51.375Z,7088
2016-08-06T04:32:51.829Z,7984
2016-08-06T04:33:52.069Z,8180
2016-08-06T04:34:51.833Z,8236
2016-08-06T04:35:51.337Z,8384
2016-08-06T04:36:51.309Z,8420
2016-08-06T04:37:51.325Z,8388
2016-08-06T04:38:51.323Z,8520
2016-08-06T04:39:51.315Z,8924
2016-08-06T04:40:55.400Z,9264
2016-08-06T04:41:52.948Z,9420
2016-08-06T04:42:51.317Z,9712
2016-08-06T04:43:52.092Z,9944
2016-08-06T04:44:51.847Z,10276
2016-08-06T04:45:51.321Z,10556
2016-08-06T04:46:51.595Z,10512
2016-08-06T04:47:51.564Z,10692
2016-08-06T04:48:51.314Z,11000
2016-08-06T04:49:52.730Z,11180
2016-08-06T04:50:52.798Z,11144
2016-08-06T04:51:52.688Z,11308
2016-08-06T04:52:53.265Z,11908
2016-08-06T04:53:51.323Z,12596
2016-08-06T04:54:51.324Z,12952
2016-08-06T04:55:51.773Z,13204
2016-08-06T04:56:51.335Z,13652
2016-08-06T04:57:51.340Z,13360
2016-08-06T04:58:51.351Z,12800
2016-08-06T04:59:51.366Z,8072
2016-08-06T05:00:51.355Z,8992
2016-08-06T05:01:51.357Z,14976
2016-08-06T05:02:51.358Z,15360
2016-08-06T05:03:51.372Z,15808
2016-08-06T05:04:51.397Z,15968
2016-08-06T05:05:51.380Z,16832
2016-08-06T05:06:51.382Z,17248
2016-08-06T05:07:51.381Z,17568
2016-08-06T05:08:51.391Z,18240
2016-08-06T05:09:51.404Z,18080
2016-08-06T05:10:51.399Z,18080
2016-08-06T05:11:51.411Z,17952
2016-08-06T05:12:52.124Z,18240
2016-08-06T05:13:51.419Z,19648
2016-08-06T05:14:51.432Z,19840
2016-08-06T05:15:51.438Z,20128
2016-08-06T05:16:51.443Z,21056
2016-08-06T05:17:51.465Z,21280
2016-08-06T05:18:51.452Z,21216
2016-08-06T05:19:51.469Z,20960
2016-08-06T05:20:51.475Z,16640
2016-08-06T05:21:51.486Z,18208
2016-08-06T05:22:51.499Z,15008
2016-08-06T05:23:51.501Z,15488
2016-08-06T05:24:51.507Z,20736
2016-08-06T05:25:51.534Z,19008
2016-08-06T05:26:51.526Z,16864
2016-08-06T05:27:51.535Z,14064
2016-08-06T05:28:51.546Z,19488
2016-08-06T05:29:51.561Z,21984
2016-08-06T05:30:51.558Z,21728
2016-08-06T05:31:51.579Z,18720
2016-08-06T05:32:51.582Z,17312
2016-08-06T05:33:51.582Z,17248
2016-08-06T05:34:51.592Z,17216
2016-08-06T05:35:51.606Z,18016
2016-08-06T05:36:52.304Z,12160
2016-08-06T05:37:51.627Z,7968
2016-08-06T05:38:52.386Z,8060
2016-08-06T05:39:51.745Z,8240
2016-08-06T05:42:06.778Z,8280
2016-08-06T05:42:51.659Z,8188
2016-08-06T05:43:51.672Z,8000
2016-08-06T05:44:51.681Z,7800
2016-08-06T05:45:51.688Z,7868
2016-08-06T05:46:51.702Z,8232
2016-08-06T05:47:52.910Z,8820
2016-08-06T05:48:53.320Z,9724
2016-08-06T05:49:52.429Z,10908
2016-08-06T05:51:06.650Z,12192
2016-08-06T05:51:51.751Z,12728
2016-08-06T05:52:51.749Z,13292
2016-08-06T05:53:51.750Z,13548
2016-08-06T05:54:51.769Z,13188
2016-08-06T05:55:51.764Z,12584
2016-08-06T05:56:51.767Z,12060
2016-08-06T05:57:51.774Z,11912
2016-08-06T05:58:52.312Z,11340
2016-08-06T05:59:53.013Z,10912
2016-08-06T06:00:53.324Z,10188
2016-08-06T06:01:52.212Z,9556
2016-08-06T06:02:52.795Z,8964
2016-08-06T06:03:52.363Z,8660
2016-08-06T06:04:51.812Z,8760
2016-08-06T06:05:51.822Z,9712
2016-08-06T06:06:51.826Z,12112
2016-08-06T06:07:54.925Z,15548
2016-08-06T06:08:54.339Z,19232
2016-08-06T06:09:53.691Z,26464
2016-08-06T06:10:53.061Z,36000
2016-08-06T06:11:51.999Z,47872
2016-08-06T06:12:52.002Z,48064
2016-08-06T06:13:51.866Z,25344
2016-08-06T06:14:51.859Z,14260
2016-08-06T06:15:51.862Z,14180
2016-08-06T06:16:51.873Z,12384
2016-08-06T06:17:51.881Z,10480
2016-08-06T06:18:51.877Z,9184
2016-08-06T06:19:51.883Z,9584
2016-08-06T06:20:51.891Z,9968
2016-08-06T06:21:51.897Z,10924
2016-08-06T06:22:51.911Z,12212
2016-08-06T06:23:51.903Z,15188
2016-08-06T06:24:51.917Z,18848
2016-08-06T06:25:51.934Z,30400
2016-08-06T06:26:51.933Z,33568
2016-08-06T06:27:51.925Z,49088
2016-08-06T06:28:51.934Z,47328
2016-08-06T06:29:51.940Z,47232
2016-08-06T06:30:51.939Z,45504
2016-08-06T06:31:52.644Z,49280
2016-08-06T06:32:51.952Z,46240
2016-08-06T06:33:51.959Z,47776
2016-08-06T06:34:52.662Z,47776
2016-08-06T06:35:51.984Z,46848
2016-08-06T06:36:51.977Z,48416
2016-08-06T06:37:51.994Z,39520
2016-08-06T06:38:51.994Z,25888
2016-08-06T06:39:52.016Z,52704
2016-08-06T06:40:52.015Z,20832
2016-08-06T06:41:52.039Z,20800
2016-08-06T06:42:52.044Z,50176
2016-08-06T06:43:52.039Z,18752
2016-08-06T06:44:52.066Z,20704
2016-08-06T06:45:52.062Z,25344
2016-08-06T06:46:52.078Z,44224
2016-08-06T06:47:52.074Z,59232
2016-08-06T06:48:52.097Z,44864
2016-08-06T06:49:52.095Z,45568
2016-08-06T06:50:52.113Z,20832
2016-08-06T06:51:52.120Z,60480
2016-08-06T06:52:52.134Z,61344
2016-08-06T06:53:52.152Z,58048
2016-08-06T06:54:52.156Z,57248
2016-08-06T06:55:52.166Z,66400
2016-08-06T06:56:53.230Z,16032
2016-08-06T06:58:07.404Z,55968
2016-08-06T06:58:52.793Z,54176
2016-08-06T06:59:53.061Z,54496
2016-08-06T07:00:52.431Z,23392
2016-08-06T07:01:52.737Z,60544
2016-08-06T07:02:52.693Z,58336
2016-08-06T07:03:52.247Z,38080
2016-08-06T07:04:52.256Z,33632
2016-08-06T07:05:52.676Z,51392
2016-08-06T07:06:53.238Z,23424
2016-08-06T07:07:53.048Z,57920
2016-08-06T07:08:53.001Z,20448
2016-08-06T07:10:07.246Z,28256
2016-08-06T07:10:52.538Z,67072
2016-08-06T07:11:53.051Z,47488
2016-08-06T07:12:52.703Z,44128
2016-08-06T07:13:52.370Z,63424
2016-08-06T07:14:53.072Z,66592
2016-08-06T07:15:52.398Z,71456
2016-08-06T07:17:09.306Z,69760
2016-08-06T07:18:55.018Z,65696
2016-08-06T07:19:54.028Z,66464
2016-08-06T07:20:53.380Z,61088
2016-08-06T07:21:53.709Z,73600
2016-08-06T07:22:52.495Z,56704
2016-08-06T07:23:52.929Z,41120
2016-08-06T07:24:52.516Z,31584
2016-08-06T07:26:54.210Z,24512
2016-08-06T07:27:52.599Z,23712
2016-08-06T07:28:52.899Z,24320
2016-08-06T07:29:52.739Z,24576
2016-08-06T07:30:53.441Z,25408
2016-08-06T07:32:52.627Z,27584
2016-08-06T07:33:52.638Z,28480
2016-08-06T07:34:52.652Z,29632
2016-08-06T07:35:52.668Z,35200
2016-08-06T07:36:52.670Z,38432
2016-08-06T07:37:52.687Z,43552
2016-08-06T07:38:52.701Z,45408
2016-08-06T07:39:52.706Z,44064
2016-08-06T07:40:52.718Z,37280
2016-08-06T07:41:52.734Z,36896
2016-08-06T07:42:52.742Z,35520
2016-08-06T07:43:52.750Z,42496
2016-08-06T07:44:52.762Z,45408
2016-08-06T07:45:52.781Z,33824
2016-08-06T07:47:52.800Z,29824
2016-08-06T07:48:52.811Z,32000
2016-08-06T07:49:52.822Z,31872
2016-08-06T07:50:52.841Z,34016
2016-08-06T07:51:52.850Z,31936
2016-08-06T07:52:52.852Z,33120
2016-08-06T07:53:52.861Z,33760
2016-08-06T07:54:52.869Z,35456
2016-08-06T07:55:52.882Z,34336
2016-08-06T07:56:52.900Z,32480
2016-08-06T07:57:52.902Z,31264
2016-08-06T07:58:52.911Z,33216
2016-08-06T07:59:53.624Z,37920
2016-08-06T08:00:52.937Z,42496
2016-08-06T08:01:52.946Z,40704
2016-08-06T08:02:52.961Z,39776
2016-08-06T08:03:52.965Z,61984
2016-08-06T08:04:52.970Z,61664
2016-08-06T08:05:52.990Z,64160
2016-08-06T08:06:52.995Z,55776
2016-08-06T08:07:53.007Z,51520
2016-08-06T08:08:53.008Z,43520
2016-08-06T08:09:53.019Z,34720
2016-08-06T08:10:53.035Z,32640
2016-08-06T08:11:53.046Z,42144
2016-08-06T08:12:53.058Z,69088
2016-08-06T08:13:53.060Z,46624
2016-08-06T08:15:09.147Z,33376
2016-08-06T08:15:53.841Z,30816
2016-08-06T08:17:23.331Z,28992
2016-08-06T08:17:53.104Z,29024
2016-08-06T08:18:53.822Z,32704
2016-08-06T08:19:53.822Z,28544
2016-08-06T08:20:53.137Z,26976
2016-08-06T08:21:53.142Z,27584
2016-08-06T08:22:53.156Z,30848
2016-08-06T08:23:53.641Z,29184
2016-08-06T08:26:09.354Z,30464
2016-08-06T08:27:54.605Z,29920
2016-08-06T08:28:54.019Z,29088
2016-08-06T08:29:53.226Z,28992
2016-08-06T08:30:53.227Z,28832
2016-08-06T08:31:53.232Z,29280
2016-08-06T08:32:53.250Z,42048
2016-08-06T08:33:53.261Z,35168
2016-08-06T08:34:55.696Z,29120
2016-08-06T08:35:54.299Z,29440
2016-08-06T08:36:53.286Z,27872
2016-08-06T08:37:53.913Z,25792
2016-08-06T08:38:54.224Z,25152
2016-08-06T08:39:53.311Z,25344
2016-08-06T08:40:53.839Z,30816
2016-08-06T08:41:53.681Z,26688
2016-08-06T08:42:53.333Z,26624
2016-08-06T08:43:53.340Z,27072
2016-08-06T08:45:55.320Z,37664
2016-08-06T08:46:53.366Z,27456
2016-08-06T08:47:53.955Z,27072
2016-08-06T08:48:53.393Z,26720
2016-08-06T08:49:54.432Z,26304
2016-08-06T08:50:53.406Z,25760
2016-08-06T08:51:53.419Z,25440
2016-08-06T08:52:53.415Z,25728
2016-08-06T08:53:53.429Z,26496
2016-08-06T08:54:53.437Z,27936
2016-08-06T08:55:53.439Z,29312
2016-08-06T08:56:53.444Z,31520
2016-08-06T08:57:53.458Z,32128
2016-08-06T08:58:53.462Z,31680
2016-08-06T08:59:53.465Z,32256
2016-08-06T09:00:53.478Z,32832
2016-08-06T09:01:53.489Z,31776
2016-08-06T09:02:53.596Z,30880
2016-08-06T09:03:53.510Z,30560
2016-08-06T09:04:53.512Z,30400
2016-08-06T09:05:53.519Z,30112
2016-08-06T09:06:53.531Z,29888
2016-08-06T09:07:53.527Z,29600
2016-08-06T09:08:53.545Z,29152
2016-08-06T09:09:53.544Z,28864
2016-08-06T09:10:53.555Z,29248
2016-08-06T09:11:53.560Z,29696
2016-08-06T09:12:53.580Z,29088
2016-08-06T09:13:53.576Z,28320
2016-08-06T09:14:53.582Z,27872
2016-08-06T09:15:53.600Z,26720
2016-08-06T09:16:53.604Z,25344
2016-08-06T09:17:54.339Z,24288
2016-08-06T09:18:53.624Z,24032
2016-08-06T09:19:53.632Z,24448
2016-08-06T09:20:53.640Z,25248
2016-08-06T09:21:53.638Z,26240
2016-08-06T09:22:53.645Z,27872
2016-08-06T09:23:53.654Z,31104
2016-08-06T09:24:53.678Z,31680
2016-08-06T09:25:53.670Z,28928
2016-08-06T09:26:53.680Z,27104
2016-08-06T09:27:53.689Z,28864
2016-08-06T09:28:53.684Z,29824
2016-08-06T09:29:53.720Z,30048
2016-08-06T09:30:53.703Z,29760
2016-08-06T09:31:53.714Z,29312
2016-08-06T09:32:53.721Z,29248
2016-08-06T09:34:09.510Z,28672
2016-08-06T09:34:55.639Z,27616
2016-08-06T09:36:53.910Z,27360
2016-08-06T09:37:53.759Z,27968
2016-08-06T09:38:54.564Z,28032
2016-08-06T09:39:53.767Z,28416
2016-08-06T09:40:53.787Z,29120
2016-08-06T09:41:53.795Z,29632
2016-08-06T09:42:54.855Z,28960
2016-08-06T09:46:08.938Z,25728
2016-08-06T09:46:53.837Z,25120
2016-08-06T09:47:53.836Z,24768
2016-08-06T09:48:54.238Z,25344
2016-08-06T09:49:53.853Z,25504
2016-08-06T09:50:53.863Z,24992
2016-08-06T09:51:53.860Z,24480
2016-08-06T09:52:53.874Z,24704
2016-08-06T09:54:55.717Z,26208
2016-08-06T09:55:53.897Z,26048
2016-08-06T09:56:55.159Z,25600
2016-08-06T09:57:55.002Z,26048
2016-08-06T09:58:53.944Z,26432
2016-08-06T09:59:53.936Z,26272
2016-08-06T10:00:53.930Z,25824
2016-08-06T10:01:53.951Z,25568
2016-08-06T10:02:55.850Z,26304
2016-08-06T10:03:56.487Z,27104
2016-08-06T10:04:56.406Z,28160
2016-08-06T10:05:54.809Z,29088
2016-08-06T10:06:55.021Z,29728
2016-08-06T10:07:54.190Z,30464
2016-08-06T10:08:53.999Z,31136
2016-08-06T10:09:54.009Z,31232
2016-08-06T10:10:54.014Z,31584
2016-08-06T10:11:54.016Z,31456
2016-08-06T10:12:54.039Z,31904
2016-08-06T10:13:54.036Z,33120
2016-08-06T10:14:54.047Z,34432
2016-08-06T10:15:54.050Z,34144
2016-08-06T10:16:54.063Z,31424
2016-08-06T10:17:54.065Z,29952
2016-08-06T10:18:54.072Z,26464
2016-08-06T10:19:54.079Z,23744
2016-08-06T10:20:54.096Z,22080
2016-08-06T10:21:54.109Z,22400
2016-08-06T10:22:54.102Z,24640
2016-08-06T10:23:54.107Z,26784
2016-08-06T10:24:54.120Z,26848
2016-08-06T10:25:54.128Z,27296
2016-08-06T10:26:54.132Z,28000
2016-08-06T10:27:54.144Z,27808
2016-08-06T10:28:54.152Z,27104
2016-08-06T10:29:54.156Z,26336
2016-08-06T10:30:54.168Z,24800
2016-08-06T10:31:54.178Z,24800
2016-08-06T10:32:54.183Z,26752
2016-08-06T10:33:54.904Z,28032
2016-08-06T10:34:54.200Z,27488
2016-08-06T10:35:54.205Z,26560
2016-08-06T10:36:54.215Z,27168
2016-08-06T10:37:54.220Z,28032
2016-08-06T10:38:54.230Z,28928
2016-08-06T10:39:54.230Z,28896
2016-08-06T10:40:54.951Z,27392
2016-08-06T10:41:54.245Z,26944
2016-08-06T10:42:54.253Z,27232
2016-08-06T10:43:54.268Z,28192
2016-08-06T10:44:54.278Z,29600
2016-08-06T10:45:54.295Z,28992
2016-08-06T10:46:54.286Z,29280
2016-08-06T10:47:54.301Z,29472
2016-08-06T10:48:54.306Z,29952
2016-08-06T10:49:54.303Z,30432
2016-08-06T10:50:54.327Z,30208
2016-08-06T10:52:09.244Z,29504
2016-08-06T10:53:25.116Z,28960
2016-08-06T10:54:09.851Z,28544
2016-08-06T10:54:55.303Z,28384
2016-08-06T10:55:55.746Z,28416
2016-08-06T10:56:55.059Z,28640
2016-08-06T10:57:54.373Z,28384
2016-08-06T10:58:55.078Z,27744
2016-08-06T10:59:54.391Z,27104
2016-08-06T11:00:54.847Z,26816
2016-08-06T11:02:10.166Z,25472
2016-08-06T11:03:55.121Z,23712
2016-08-06T11:04:55.928Z,23584
2016-08-06T11:05:54.435Z,23104
2016-08-06T11:06:55.091Z,22528
2016-08-06T11:07:54.448Z,21792
2016-08-06T11:08:54.452Z,22048
2016-08-06T11:09:54.460Z,22752
2016-08-06T11:10:54.472Z,24736
2016-08-06T11:11:57.464Z,21472
2016-08-06T11:12:56.294Z,21920
2016-08-06T11:13:55.087Z,21152
2016-08-06T11:14:55.213Z,20544
2016-08-06T11:15:54.511Z,22112
2016-08-06T11:16:54.562Z,22240
2016-08-06T11:18:54.534Z,21280
2016-08-06T11:19:54.543Z,23520
2016-08-06T11:20:55.830Z,21088
2016-08-06T11:21:56.711Z,20320
2016-08-06T11:22:54.554Z,18592
2016-08-06T11:23:56.441Z,17856
2016-08-06T11:24:54.587Z,18272
2016-08-06T11:25:54.802Z,19200
2016-08-06T11:26:54.591Z,22176
2016-08-06T11:27:54.608Z,22720
2016-08-06T11:28:54.613Z,22656
2016-08-06T11:29:54.619Z,20000
2016-08-06T11:30:54.623Z,20288
2016-08-06T11:31:54.651Z,23296
2016-08-06T11:33:55.343Z,21440
2016-08-06T11:34:54.662Z,19360
2016-08-06T11:35:54.666Z,17632
2016-08-06T11:36:54.674Z,16864
2016-08-06T11:37:54.678Z,17696
2016-08-06T11:38:55.387Z,22496
2016-08-06T11:39:54.693Z,21824
2016-08-06T11:40:54.693Z,22912
2016-08-06T11:41:54.706Z,24544
2016-08-06T11:42:54.717Z,23296
2016-08-06T11:43:55.416Z,22560
2016-08-06T11:44:54.727Z,22048
2016-08-06T11:45:54.745Z,21728
2016-08-06T11:46:54.742Z,20512
2016-08-06T11:48:54.759Z,18336
2016-08-06T11:49:54.771Z,18560
2016-08-06T11:50:54.782Z,19392
2016-08-06T11:51:54.778Z,20128
2016-08-06T11:52:54.787Z,21376
2016-08-06T11:53:54.795Z,22976
2016-08-06T11:54:54.815Z,23648
2016-08-06T11:55:54.807Z,24640
2016-08-06T11:56:54.809Z,26144
2016-08-06T11:57:54.841Z,26720
2016-08-06T11:58:54.829Z,26752
2016-08-06T11:59:54.835Z,26784
2016-08-06T12:00:55.545Z,27616
2016-08-06T12:01:54.848Z,28352
2016-08-06T12:02:54.867Z,27488
2016-08-06T12:03:54.867Z,27200
2016-08-06T12:04:54.867Z,27680
2016-08-06T12:05:54.888Z,27328
2016-08-06T12:06:54.898Z,26592
2016-08-06T12:07:54.903Z,25824
2016-08-06T12:08:54.904Z,24000
2016-08-06T12:09:55.667Z,21600
2016-08-06T12:10:56.018Z,20576
2016-08-06T12:11:54.932Z,20576
2016-08-06T12:13:09.846Z,19584
2016-08-06T12:13:55.331Z,18944
2016-08-06T12:14:55.643Z,21216
2016-08-06T12:15:55.364Z,19744
2016-08-06T12:16:54.951Z,15500
2016-08-06T12:17:54.978Z,12560
2016-08-06T12:19:10.996Z,10452
2016-08-06T12:19:56.039Z,9932
2016-08-06T12:21:25.069Z,9288
2016-08-06T12:22:09.913Z,9568
2016-08-06T12:22:55.555Z,9796
2016-08-06T12:23:55.014Z,9960
2016-08-06T12:24:55.009Z,10800
2016-08-06T12:25:55.371Z,12416
2016-08-06T12:26:55.027Z,13784
2016-08-06T12:27:55.035Z,15224
2016-08-06T12:28:55.035Z,16672
2016-08-06T12:29:56.995Z,18816
2016-08-06T12:30:56.633Z,20320
2016-08-06T12:31:56.191Z,21504
2016-08-06T12:32:55.648Z,22336
2016-08-06T12:33:57.579Z,23328
2016-08-06T12:34:55.078Z,24512
2016-08-06T12:35:55.092Z,24736
2016-08-06T12:36:55.095Z,24704
2016-08-06T12:37:55.098Z,24192
2016-08-06T12:38:55.528Z,23200
2016-08-06T12:39:57.162Z,22624
2016-08-06T12:40:55.215Z,22368
2016-08-06T12:41:55.212Z,22368
2016-08-06T12:42:56.863Z,22560
2016-08-06T12:43:55.135Z,21824
2016-08-06T12:44:55.145Z,22176
2016-08-06T12:45:55.157Z,23008
2016-08-06T12:46:55.178Z,22624
2016-08-06T12:47:55.168Z,22336
2016-08-06T12:48:55.867Z,22272
2016-08-06T12:49:55.185Z,22176
2016-08-06T12:50:55.190Z,22144
2016-08-06T12:51:55.189Z,21728
2016-08-06T12:52:55.202Z,22368
2016-08-06T12:53:55.213Z,22944
2016-08-06T12:54:55.212Z,22592
2016-08-06T12:55:55.222Z,22272
2016-08-06T12:56:55.228Z,21696
2016-08-06T12:57:55.239Z,21312
2016-08-06T12:58:55.236Z,20928
2016-08-06T12:59:55.246Z,19904
2016-08-06T13:00:55.258Z,18560
2016-08-06T13:01:55.269Z,17376
2016-08-06T13:02:55.472Z,16120
2016-08-06T13:03:55.283Z,14780
2016-08-06T13:04:55.287Z,13844
2016-08-06T13:05:55.284Z,13576
2016-08-06T13:06:55.300Z,13348
2016-08-06T13:07:55.308Z,12868
2016-08-06T13:08:55.315Z,12980
2016-08-06T13:09:55.321Z,14168
2016-08-06T13:10:55.329Z,15468
2016-08-06T13:11:55.328Z,17184
2016-08-06T13:12:55.342Z,17024
2016-08-06T13:13:55.345Z,15340
2016-08-06T13:14:55.345Z,15268
2016-08-06T13:15:55.367Z,14604
2016-08-06T13:16:55.370Z,13356
2016-08-06T13:17:55.369Z,11616
2016-08-06T13:18:55.379Z,9492
2016-08-06T13:19:55.390Z,7460
2016-08-06T13:20:55.386Z,6648
2016-08-06T13:21:55.395Z,6576
2016-08-06T13:22:55.408Z,6376
2016-08-06T13:23:56.180Z,6144
2016-08-06T13:24:55.410Z,5968
2016-08-06T13:25:55.418Z,6200
2016-08-06T13:26:55.429Z,6408
2016-08-06T13:29:10.565Z,5996
2016-08-06T13:29:55.591Z,5980
2016-08-06T13:30:55.794Z,6052
2016-08-06T13:31:55.513Z,6380
2016-08-06T13:32:55.805Z,8100
2016-08-06T13:33:56.261Z,6972
2016-08-06T13:34:56.417Z,6148
2016-08-06T13:35:55.484Z,8016
2016-08-06T13:37:25.316Z,9076
2016-08-06T13:37:55.979Z,8368
2016-08-06T13:38:56.198Z,7860
2016-08-06T13:39:55.493Z,7912
2016-08-06T13:40:55.499Z,7732
2016-08-06T13:41:56.460Z,6752
2016-08-06T13:42:55.515Z,5948
2016-08-06T13:43:55.514Z,6772
2016-08-06T13:44:55.512Z,7412
2016-08-06T13:45:55.522Z,6816
2016-08-06T13:46:55.535Z,6332
2016-08-06T13:47:57.052Z,6120
2016-08-06T13:48:57.060Z,6688
2016-08-06T13:49:57.247Z,7476